Brasie Corners, New York
Current Conditions -  °F | °C
As of 3:58 AM on Saturday 22 Nov 2014 (Local Time) from KGTB Reporting Station
Overcast Overcast  
Wind Chill: 11°   Ceiling: 2100
Heat Index: 24°   Visibility: 10mi
Dew Point: 17°   Wind: 16mph
Humidity: 75%   Direction: 220°SW
Pressure: 30.26"   Gusts: NA
Location:  44.3309°N, 75.4775°W
Report Text: KGTB 220858Z AUTO 22014KT 10SM OVC021 M04/M08 A3026 RMK AO2 SNE0823 SLP258 P0000 60000 T10431082 58017
Loading
Personal Weather Stations






























Interactive Weather Map New forecast layout! Learn more

10-Day Weather Forecast

Advertisements
Track Severe Weather on mobile